sensor_id;sensor_type;location;lat;lon;timestamp;temperature;humidity
41262;DHT22;29629;52.532;13.352;2023-04-25T00:02:08;9.70;99.90
41262;DHT22;29629;52.532;13.352;2023-04-25T00:04:35;9.70;99.90
41262;DHT22;29629;52.532;13.352;2023-04-25T00:07:04;9.70;99.90
41262;DHT22;29629;52.532;13.352;2023-04-25T00:09:31;9.80;99.90
41262;DHT22;29629;52.532;13.352;2023-04-25T00:11:58;9.90;99.90
41262;DHT22;29629;52.532;13.352;2023-04-25T00:14:26;9.80;99.90
41262;DHT22;29629;52.532;13.352;2023-04-25T00:16:54;9.70;99.90
41262;DHT22;29629;52.532;13.352;2023-04-25T00:19:21;9.70;99.90
41262;DHT22;29629;52.532;13.352;2023-04-25T00:21:48;9.70;99.90
41262;DHT22;29629;52.532;13.352;2023-04-25T00:24:16;9.70;99.90
41262;DHT22;29629;52.532;13.352;2023-04-25T00:26:43;9.70;99.90
41262;DHT22;29629;52.532;13.352;2023-04-25T00:29:10;9.70;99.90
41262;DHT22;29629;52.532;13.352;2023-04-25T00:31:37;9.80;99.90
41262;DHT22;29629;52.532;13.352;2023-04-25T00:34:04;9.80;99.90
41262;DHT22;29629;52.532;13.352;2023-04-25T00:36:31;9.80;99.90
41262;DHT22;29629;52.532;13.352;2023-04-25T00:38:58;9.80;99.90
41262;DHT22;29629;52.532;13.352;2023-04-25T00:41:26;9.80;99.90
41262;DHT22;29629;52.532;13.352;2023-04-25T00:43:56;9.70;99.90
41262;DHT22;29629;52.532;13.352;2023-04-25T00:46:23;9.70;99.90
41262;DHT22;29629;52.532;13.352;2023-04-25T00:48:50;9.70;99.90
41262;DHT22;29629;52.532;13.352;2023-04-25T00:51:21;9.70;99.90
41262;DHT22;29629;52.532;13.352;2023-04-25T00:53:49;9.70;99.90
41262;DHT22;29629;52.532;13.352;2023-04-25T00:56:16;9.80;99.90
41262;DHT22;29629;52.532;13.352;2023-04-25T00:58:45;9.70;99.90
41262;DHT22;29629;52.532;13.352;2023-04-25T01:01:12;9.70;99.90
41262;DHT22;29629;52.532;13.352;2023-04-25T01:03:39;9.70;99.90
41262;DHT22;29629;52.532;13.352;2023-04-25T01:06:08;9.70;99.90
41262;DHT22;29629;52.532;13.352;2023-04-25T01:08:36;9.70;99.90
41262;DHT22;29629;52.532;13.352;2023-04-25T01:11:04;9.70;99.90
41262;DHT22;29629;52.532;13.352;2023-04-25T01:13:31;9.70;99.90
41262;DHT22;29629;52.532;13.352;2023-04-25T01:16:00;9.70;99.90
41262;DHT22;29629;52.532;13.352;2023-04-25T01:18:27;9.70;99.90
41262;DHT22;29629;52.532;13.352;2023-04-25T01:20:54;9.70;99.90
41262;DHT22;29629;52.532;13.352;2023-04-25T01:23:23;9.70;99.90
41262;DHT22;29629;52.532;13.352;2023-04-25T01:25:50;9.70;99.90
41262;DHT22;29629;52.532;13.352;2023-04-25T01:28:18;9.60;99.90
41262;DHT22;29629;52.532;13.352;2023-04-25T01:30:46;9.60;99.90
41262;DHT22;29629;52.532;13.352;2023-04-25T01:33:14;9.60;99.90
41262;DHT22;29629;52.532;13.352;2023-04-25T01:35:42;9.60;99.90
41262;DHT22;29629;52.532;13.352;2023-04-25T01:38:09;9.60;99.90
41262;DHT22;29629;52.532;13.352;2023-04-25T01:40:39;9.60;99.90
41262;DHT22;29629;52.532;13.352;2023-04-25T01:43:07;9.60;99.90
41262;DHT22;29629;52.532;13.352;2023-04-25T01:45:36;9.70;99.90
41262;DHT22;29629;52.532;13.352;2023-04-25T01:48:05;9.70;99.90
41262;DHT22;29629;52.532;13.352;2023-04-25T01:50:32;9.60;99.90
41262;DHT22;29629;52.532;13.352;2023-04-25T01:52:59;9.50;99.90
41262;DHT22;29629;52.532;13.352;2023-04-25T01:55:27;9.50;99.90
41262;DHT22;29629;52.532;13.352;2023-04-25T01:57:55;9.50;99.90
41262;DHT22;29629;52.532;13.352;2023-04-25T02:00:23;9.60;99.90
41262;DHT22;29629;52.532;13.352;2023-04-25T02:02:50;9.70;99.90
41262;DHT22;29629;52.532;13.352;2023-04-25T02:05:19;9.60;99.90
41262;DHT22;29629;52.532;13.352;2023-04-25T02:07:48;9.60;99.90
41262;DHT22;29629;52.532;13.352;2023-04-25T02:10:15;9.60;99.90
41262;DHT22;29629;52.532;13.352;2023-04-25T02:12:42;9.50;99.90
41262;DHT22;29629;52.532;13.352;2023-04-25T02:15:10;9.50;99.90
41262;DHT22;29629;52.532;13.352;2023-04-25T02:17:37;9.60;99.90
41262;DHT22;29629;52.532;13.352;2023-04-25T02:20:05;9.60;99.90
41262;DHT22;29629;52.532;13.352;2023-04-25T02:22:33;9.50;99.90
41262;DHT22;29629;52.532;13.352;2023-04-25T02:25:01;9.40;99.90
41262;DHT22;29629;52.532;13.352;2023-04-25T02:27:30;9.40;99.90
41262;DHT22;29629;52.532;13.352;2023-04-25T02:29:56;9.30;99.90
41262;DHT22;29629;52.532;13.352;2023-04-25T02:32:25;9.50;99.90
41262;DHT22;29629;52.532;13.352;2023-04-25T02:34:52;9.40;99.90
41262;DHT22;29629;52.532;13.352;2023-04-25T02:37:19;9.50;99.90
41262;DHT22;29629;52.532;13.352;2023-04-25T02:39:46;9.40;99.90
41262;DHT22;29629;52.532;13.352;2023-04-25T02:42:13;9.50;99.90
41262;DHT22;29629;52.532;13.352;2023-04-25T02:44:40;9.40;99.90
41262;DHT22;29629;52.532;13.352;2023-04-25T02:47:07;9.50;99.90
41262;DHT22;29629;52.532;13.352;2023-04-25T02:49:35;9.50;99.90
41262;DHT22;29629;52.532;13.352;2023-04-25T02:52:02;9.50;99.90
41262;DHT22;29629;52.532;13.352;2023-04-25T02:54:29;9.50;99.90
41262;DHT22;29629;52.532;13.352;2023-04-25T02:56:56;9.40;99.90
41262;DHT22;29629;52.532;13.352;2023-04-25T02:59:23;9.40;99.90
41262;DHT22;29629;52.532;13.352;2023-04-25T03:01:50;9.40;99.90
41262;DHT22;29629;52.532;13.352;2023-04-25T03:04:17;9.40;99.90
41262;DHT22;29629;52.532;13.352;2023-04-25T03:06:46;9.30;99.90
41262;DHT22;29629;52.532;13.352;2023-04-25T03:09:13;9.40;99.90
41262;DHT22;29629;52.532;13.352;2023-04-25T03:11:40;9.50;99.90
41262;DHT22;29629;52.532;13.352;2023-04-25T03:14:07;9.40;99.90
41262;DHT22;29629;52.532;13.352;2023-04-25T03:16:34;9.30;99.90
41262;DHT22;29629;52.532;13.352;2023-04-25T03:19:01;9.40;99.90
41262;DHT22;29629;52.532;13.352;2023-04-25T03:21:28;9.40;99.90
41262;DHT22;29629;52.532;13.352;2023-04-25T03:23:58;9.30;99.90
41262;DHT22;29629;52.532;13.352;2023-04-25T03:26:25;9.40;99.90
41262;DHT22;29629;52.532;13.352;2023-04-25T03:28:52;9.20;99.90
41262;DHT22;29629;52.532;13.352;2023-04-25T03:31:20;9.30;99.90
41262;DHT22;29629;52.532;13.352;2023-04-25T03:33:47;9.30;99.90
41262;DHT22;29629;52.532;13.352;2023-04-25T03:36:14;9.40;99.90
41262;DHT22;29629;52.532;13.352;2023-04-25T03:38:41;9.30;99.90
41262;DHT22;29629;52.532;13.352;2023-04-25T03:41:10;9.30;99.90
41262;DHT22;29629;52.532;13.352;2023-04-25T03:43:36;9.20;99.90
41262;DHT22;29629;52.532;13.352;2023-04-25T03:46:03;9.20;99.90
41262;DHT22;29629;52.532;13.352;2023-04-25T03:48:30;9.20;99.90
41262;DHT22;29629;52.532;13.352;2023-04-25T03:50:57;9.30;99.90
41262;DHT22;29629;52.532;13.352;2023-04-25T03:53:25;9.40;99.90
41262;DHT22;29629;52.532;13.352;2023-04-25T03:55:52;9.40;99.90
41262;DHT22;29629;52.532;13.352;2023-04-25T03:58:20;9.40;99.90
41262;DHT22;29629;52.532;13.352;2023-04-25T04:00:48;9.50;99.90
41262;DHT22;29629;52.532;13.352;2023-04-25T04:03:15;9.40;99.90
41262;DHT22;29629;52.532;13.352;2023-04-25T04:05:42;9.30;99.90
41262;DHT22;29629;52.532;13.352;2023-04-25T04:08:09;9.30;99.90
41262;DHT22;29629;52.532;13.352;2023-04-25T04:10:36;9.30;99.90
41262;DHT22;29629;52.532;13.352;2023-04-25T04:13:03;9.30;99.90
41262;DHT22;29629;52.532;13.352;2023-04-25T04:15:31;9.30;99.90
41262;DHT22;29629;52.532;13.352;2023-04-25T04:17:58;9.20;99.90
41262;DHT22;29629;52.532;13.352;2023-04-25T04:20:28;9.30;99.90
41262;DHT22;29629;52.532;13.352;2023-04-25T04:22:55;9.20;99.90
41262;DHT22;29629;52.532;13.352;2023-04-25T04:25:22;9.30;99.90
41262;DHT22;29629;52.532;13.352;2023-04-25T04:27:50;9.20;99.90
41262;DHT22;29629;52.532;13.352;2023-04-25T04:30:20;9.20;99.90
41262;DHT22;29629;52.532;13.352;2023-04-25T04:32:50;9.20;99.90
41262;DHT22;29629;52.532;13.352;2023-04-25T04:35:17;9.30;99.90
41262;DHT22;29629;52.532;13.352;2023-04-25T04:37:44;9.20;99.90
41262;DHT22;29629;52.532;13.352;2023-04-25T04:40:12;9.30;99.90
41262;DHT22;29629;52.532;13.352;2023-04-25T04:42:41;9.40;99.90
41262;DHT22;29629;52.532;13.352;2023-04-25T04:45:08;9.40;99.90
41262;DHT22;29629;52.532;13.352;2023-04-25T04:47:36;9.40;99.90
41262;DHT22;29629;52.532;13.352;2023-04-25T04:50:07;9.40;99.90
41262;DHT22;29629;52.532;13.352;2023-04-25T04:52:35;9.40;99.90
41262;DHT22;29629;52.532;13.352;2023-04-25T04:55:02;9.50;99.90
41262;DHT22;29629;52.532;13.352;2023-04-25T04:57:29;9.50;99.90
41262;DHT22;29629;52.532;13.352;2023-04-25T04:59:56;9.40;99.90
41262;DHT22;29629;52.532;13.352;2023-04-25T05:02:23;9.40;99.90
41262;DHT22;29629;52.532;13.352;2023-04-25T05:04:51;9.50;99.90
41262;DHT22;29629;52.532;13.352;2023-04-25T05:07:19;9.60;99.90
41262;DHT22;29629;52.532;13.352;2023-04-25T05:09:46;9.50;99.90
41262;DHT22;29629;52.532;13.352;2023-04-25T05:12:13;9.50;99.90
41262;DHT22;29629;52.532;13.352;2023-04-25T05:14:40;9.40;99.90
41262;DHT22;29629;52.532;13.352;2023-04-25T05:17:07;9.50;99.90
41262;DHT22;29629;52.532;13.352;2023-04-25T05:19:34;9.60;99.90
41262;DHT22;29629;52.532;13.352;2023-04-25T05:22:01;9.70;99.90
41262;DHT22;29629;52.532;13.352;2023-04-25T05:24:29;9.50;99.90
41262;DHT22;29629;52.532;13.352;2023-04-25T05:26:57;9.60;99.90
41262;DHT22;29629;52.532;13.352;2023-04-25T05:29:24;9.60;99.90
41262;DHT22;29629;52.532;13.352;2023-04-25T05:31:51;9.70;99.90
41262;DHT22;29629;52.532;13.352;2023-04-25T05:34:18;9.50;99.90
41262;DHT22;29629;52.532;13.352;2023-04-25T05:36:45;9.50;99.90
41262;DHT22;29629;52.532;13.352;2023-04-25T05:39:13;9.50;99.90
41262;DHT22;29629;52.532;13.352;2023-04-25T05:41:42;9.40;99.90
41262;DHT22;29629;52.532;13.352;2023-04-25T05:44:09;9.50;99.90
41262;DHT22;29629;52.532;13.352;2023-04-25T05:46:36;9.60;99.90
41262;DHT22;29629;52.532;13.352;2023-04-25T05:49:03;9.60;99.90
41262;DHT22;29629;52.532;13.352;2023-04-25T05:51:29;9.60;99.90
41262;DHT22;29629;52.532;13.352;2023-04-25T05:53:57;9.50;99.90
41262;DHT22;29629;52.532;13.352;2023-04-25T05:56:24;9.40;99.90
41262;DHT22;29629;52.532;13.352;2023-04-25T05:58:52;9.40;99.90
41262;DHT22;29629;52.532;13.352;2023-04-25T06:01:19;9.30;99.90
41262;DHT22;29629;52.532;13.352;2023-04-25T06:03:46;9.40;99.90
41262;DHT22;29629;52.532;13.352;2023-04-25T06:06:13;9.40;99.90
41262;DHT22;29629;52.532;13.352;2023-04-25T06:08:40;9.50;99.90
41262;DHT22;29629;52.532;13.352;2023-04-25T06:11:07;9.40;99.90
41262;DHT22;29629;52.532;13.352;2023-04-25T06:13:34;9.40;99.90
41262;DHT22;29629;52.532;13.352;2023-04-25T06:16:02;9.50;99.90
41262;DHT22;29629;52.532;13.352;2023-04-25T06:18:30;9.60;99.90
41262;DHT22;29629;52.532;13.352;2023-04-25T06:20:56;9.60;99.90
41262;DHT22;29629;52.532;13.352;2023-04-25T06:23:23;9.60;99.90
41262;DHT22;29629;52.532;13.352;2023-04-25T06:25:50;9.70;99.90
41262;DHT22;29629;52.532;13.352;2023-04-25T06:28:17;9.80;99.90
41262;DHT22;29629;52.532;13.352;2023-04-25T06:30:44;9.80;99.90
41262;DHT22;29629;52.532;13.352;2023-04-25T06:33:13;9.80;99.90
41262;DHT22;29629;52.532;13.352;2023-04-25T06:35:40;9.70;99.90
41262;DHT22;29629;52.532;13.352;2023-04-25T06:38:07;9.70;99.90
41262;DHT22;29629;52.532;13.352;2023-04-25T06:40:34;9.70;99.90
41262;DHT22;29629;52.532;13.352;2023-04-25T06:43:01;9.60;99.90
41262;DHT22;29629;52.532;13.352;2023-04-25T06:45:28;9.70;99.90
41262;DHT22;29629;52.532;13.352;2023-04-25T06:47:55;9.70;99.90
41262;DHT22;29629;52.532;13.352;2023-04-25T06:50:23;9.80;99.90
41262;DHT22;29629;52.532;13.352;2023-04-25T06:52:50;9.70;99.90
41262;DHT22;29629;52.532;13.352;2023-04-25T06:55:17;9.80;99.90
41262;DHT22;29629;52.532;13.352;2023-04-25T06:57:45;9.70;99.90
41262;DHT22;29629;52.532;13.352;2023-04-25T07:00:13;9.60;99.90
41262;DHT22;29629;52.532;13.352;2023-04-25T07:02:40;9.70;99.90
41262;DHT22;29629;52.532;13.352;2023-04-25T07:05:09;9.70;99.90
41262;DHT22;29629;52.532;13.352;2023-04-25T07:07:37;9.70;99.90
41262;DHT22;29629;52.532;13.352;2023-04-25T07:10:05;9.70;99.90
41262;DHT22;29629;52.532;13.352;2023-04-25T07:12:32;9.70;99.90
41262;DHT22;29629;52.532;13.352;2023-04-25T07:14:58;9.70;99.90
41262;DHT22;29629;52.532;13.352;2023-04-25T07:17:31;9.50;99.90
41262;DHT22;29629;52.532;13.352;2023-04-25T07:19:59;9.30;99.90
41262;DHT22;29629;52.532;13.352;2023-04-25T07:22:25;9.40;99.90
41262;DHT22;29629;52.532;13.352;2023-04-25T07:24:54;9.40;99.90
41262;DHT22;29629;52.532;13.352;2023-04-25T07:27:21;9.40;99.90
41262;DHT22;29629;52.532;13.352;2023-04-25T07:29:48;9.50;99.90
41262;DHT22;29629;52.532;13.352;2023-04-25T07:32:15;9.70;99.90
41262;DHT22;29629;52.532;13.352;2023-04-25T07:34:42;9.90;99.90
41262;DHT22;29629;52.532;13.352;2023-04-25T07:37:08;9.90;99.90
41262;DHT22;29629;52.532;13.352;2023-04-25T07:39:35;9.90;99.90
41262;DHT22;29629;52.532;13.352;2023-04-25T07:42:04;9.80;99.90
41262;DHT22;29629;52.532;13.352;2023-04-25T07:44:33;10.00;99.90
41262;DHT22;29629;52.532;13.352;2023-04-25T07:47:08;10.10;99.90
41262;DHT22;29629;52.532;13.352;2023-04-25T07:49:36;9.90;99.90
41262;DHT22;29629;52.532;13.352;2023-04-25T07:52:04;9.80;99.90
41262;DHT22;29629;52.532;13.352;2023-04-25T07:54:31;9.90;99.90
41262;DHT22;29629;52.532;13.352;2023-04-25T07:56:58;9.80;99.90
41262;DHT22;29629;52.532;13.352;2023-04-25T07:59:28;10.00;99.90
41262;DHT22;29629;52.532;13.352;2023-04-25T08:01:55;10.00;99.90
41262;DHT22;29629;52.532;13.352;2023-04-25T08:04:23;10.10;99.90
41262;DHT22;29629;52.532;13.352;2023-04-25T08:06:50;10.30;99.90
41262;DHT22;29629;52.532;13.352;2023-04-25T08:09:18;10.50;99.90
41262;DHT22;29629;52.532;13.352;2023-04-25T08:11:44;10.70;99.90
41262;DHT22;29629;52.532;13.352;2023-04-25T08:14:12;10.70;99.90
41262;DHT22;29629;52.532;13.352;2023-04-25T08:16:40;10.70;99.90
41262;DHT22;29629;52.532;13.352;2023-04-25T08:19:07;10.60;99.90
41262;DHT22;29629;52.532;13.352;2023-04-25T08:21:34;10.70;99.90
41262;DHT22;29629;52.532;13.352;2023-04-25T08:24:01;10.80;99.90
41262;DHT22;29629;52.532;13.352;2023-04-25T08:26:28;10.90;99.90
41262;DHT22;29629;52.532;13.352;2023-04-25T08:28:55;10.80;99.90
41262;DHT22;29629;52.532;13.352;2023-04-25T08:31:22;10.90;99.90
41262;DHT22;29629;52.532;13.352;2023-04-25T08:33:50;10.70;99.90
41262;DHT22;29629;52.532;13.352;2023-04-25T08:36:17;10.90;99.90
41262;DHT22;29629;52.532;13.352;2023-04-25T08:38:44;11.00;99.90
41262;DHT22;29629;52.532;13.352;2023-04-25T08:41:11;11.00;99.90
41262;DHT22;29629;52.532;13.352;2023-04-25T08:43:42;11.20;99.90
41262;DHT22;29629;52.532;13.352;2023-04-25T08:46:11;11.30;99.90
41262;DHT22;29629;52.532;13.352;2023-04-25T08:48:40;11.20;99.90
41262;DHT22;29629;52.532;13.352;2023-04-25T08:51:10;11.70;99.90
41262;DHT22;29629;52.532;13.352;2023-04-25T08:53:42;12.40;99.90
41262;DHT22;29629;52.532;13.352;2023-04-25T08:56:12;12.20;99.90
41262;DHT22;29629;52.532;13.352;2023-04-25T08:58:43;12.30;99.90
41262;DHT22;29629;52.532;13.352;2023-04-25T09:01:11;12.80;99.90
41262;DHT22;29629;52.532;13.352;2023-04-25T09:03:38;13.10;99.90
41262;DHT22;29629;52.532;13.352;2023-04-25T09:06:05;13.60;99.90
41262;DHT22;29629;52.532;13.352;2023-04-25T09:08:33;13.70;99.90
41262;DHT22;29629;52.532;13.352;2023-04-25T09:11:02;13.70;99.90
41262;DHT22;29629;52.532;13.352;2023-04-25T09:13:29;14.70;99.90
41262;DHT22;29629;52.532;13.352;2023-04-25T09:15:57;15.40;99.90
41262;DHT22;29629;52.532;13.352;2023-04-25T09:18:25;15.70;99.90
41262;DHT22;29629;52.532;13.352;2023-04-25T09:20:52;16.40;99.90
41262;DHT22;29629;52.532;13.352;2023-04-25T09:23:20;16.30;99.90
41262;DHT22;29629;52.532;13.352;2023-04-25T09:25:51;16.10;99.90
41262;DHT22;29629;52.532;13.352;2023-04-25T09:28:23;16.30;99.90
41262;DHT22;29629;52.532;13.352;2023-04-25T09:30:54;15.50;99.90
41262;DHT22;29629;52.532;13.352;2023-04-25T09:33:27;16.50;99.90
41262;DHT22;29629;52.532;13.352;2023-04-25T09:35:56;18.10;99.90
41262;DHT22;29629;52.532;13.352;2023-04-25T09:38:30;17.60;99.90
41262;DHT22;29629;52.532;13.352;2023-04-25T09:40:59;17.70;99.90
41262;DHT22;29629;52.532;13.352;2023-04-25T09:43:29;16.80;99.90
41262;DHT22;29629;52.532;13.352;2023-04-25T09:45:56;14.90;99.90
41262;DHT22;29629;52.532;13.352;2023-04-25T09:48:26;14.60;99.90
41262;DHT22;29629;52.532;13.352;2023-04-25T09:51:07;13.80;99.90
41262;DHT22;29629;52.532;13.352;2023-04-25T09:53:34;13.30;99.90
41262;DHT22;29629;52.532;13.352;2023-04-25T09:56:05;13.10;99.90
41262;DHT22;29629;52.532;13.352;2023-04-25T09:58:33;13.20;99.90
41262;DHT22;29629;52.532;13.352;2023-04-25T10:01:02;13.20;99.90
41262;DHT22;29629;52.532;13.352;2023-04-25T10:03:31;14.90;99.90
41262;DHT22;29629;52.532;13.352;2023-04-25T10:05:59;14.50;99.90
41262;DHT22;29629;52.532;13.352;2023-04-25T10:08:31;14.10;99.90
41262;DHT22;29629;52.532;13.352;2023-04-25T10:11:00;13.90;99.90
41262;DHT22;29629;52.532;13.352;2023-04-25T10:13:30;13.50;99.90
41262;DHT22;29629;52.532;13.352;2023-04-25T10:15:58;13.80;99.90
41262;DHT22;29629;52.532;13.352;2023-04-25T10:18:27;14.60;99.90
41262;DHT22;29629;52.532;13.352;2023-04-25T10:20:55;14.30;99.90
41262;DHT22;29629;52.532;13.352;2023-04-25T10:23:23;14.00;99.90
41262;DHT22;29629;52.532;13.352;2023-04-25T10:25:51;14.30;99.90
41262;DHT22;29629;52.532;13.352;2023-04-25T10:28:19;14.60;99.90
41262;DHT22;29629;52.532;13.352;2023-04-25T10:31:00;13.90;99.90
41262;DHT22;29629;52.532;13.352;2023-04-25T10:33:35;13.50;99.90
41262;DHT22;29629;52.532;13.352;2023-04-25T10:36:13;13.50;99.90
41262;DHT22;29629;52.532;13.352;2023-04-25T10:38:42;13.10;99.90
41262;DHT22;29629;52.532;13.352;2023-04-25T10:41:12;13.50;99.90
41262;DHT22;29629;52.532;13.352;2023-04-25T10:43:40;13.70;99.90
41262;DHT22;29629;52.532;13.352;2023-04-25T10:46:15;13.60;99.90
41262;DHT22;29629;52.532;13.352;2023-04-25T10:48:50;13.60;99.90
41262;DHT22;29629;52.532;13.352;2023-04-25T10:51:19;13.70;99.90
41262;DHT22;29629;52.532;13.352;2023-04-25T10:53:56;13.60;99.90
41262;DHT22;29629;52.532;13.352;2023-04-25T10:56:26;13.50;99.90
41262;DHT22;29629;52.532;13.352;2023-04-25T10:59:04;12.90;99.90
41262;DHT22;29629;52.532;13.352;2023-04-25T11:01:37;13.00;99.90
41262;DHT22;29629;52.532;13.352;2023-04-25T11:04:05;13.40;99.90
41262;DHT22;29629;52.532;13.352;2023-04-25T11:06:49;13.50;99.90
41262;DHT22;29629;52.532;13.352;2023-04-25T11:09:23;13.90;99.90
41262;DHT22;29629;52.532;13.352;2023-04-25T11:11:54;13.40;99.90
41262;DHT22;29629;52.532;13.352;2023-04-25T11:14:21;12.80;99.90
41262;DHT22;29629;52.532;13.352;2023-04-25T11:16:54;12.40;99.90
41262;DHT22;29629;52.532;13.352;2023-04-25T11:19:21;12.20;99.90
41262;DHT22;29629;52.532;13.352;2023-04-25T11:21:48;12.20;99.90
41262;DHT22;29629;52.532;13.352;2023-04-25T11:24:16;11.80;99.90
41262;DHT22;29629;52.532;13.352;2023-04-25T11:26:43;11.70;99.90
41262;DHT22;29629;52.532;13.352;2023-04-25T11:29:13;11.60;99.90
41262;DHT22;29629;52.532;13.352;2023-04-25T11:31:43;11.80;99.90
41262;DHT22;29629;52.532;13.352;2023-04-25T11:34:17;11.80;99.90
41262;DHT22;29629;52.532;13.352;2023-04-25T11:36:44;12.00;99.90
41262;DHT22;29629;52.532;13.352;2023-04-25T11:39:12;11.80;99.90
41262;DHT22;29629;52.532;13.352;2023-04-25T11:41:39;11.60;99.90
41262;DHT22;29629;52.532;13.352;2023-04-25T11:44:06;11.80;99.90
41262;DHT22;29629;52.532;13.352;2023-04-25T11:46:34;11.80;99.90
41262;DHT22;29629;52.532;13.352;2023-04-25T11:49:01;12.20;99.90
41262;DHT22;29629;52.532;13.352;2023-04-25T11:51:38;12.60;99.90
41262;DHT22;29629;52.532;13.352;2023-04-25T11:54:05;12.40;99.90
41262;DHT22;29629;52.532;13.352;2023-04-25T11:56:32;12.20;99.90
41262;DHT22;29629;52.532;13.352;2023-04-25T11:59:01;12.00;99.90
41262;DHT22;29629;52.532;13.352;2023-04-25T12:01:29;11.90;99.90
41262;DHT22;29629;52.532;13.352;2023-04-25T12:03:58;12.30;99.90
41262;DHT22;29629;52.532;13.352;2023-04-25T12:06:29;12.50;99.90
41262;DHT22;29629;52.532;13.352;2023-04-25T12:09:01;12.40;99.90
41262;DHT22;29629;52.532;13.352;2023-04-25T12:11:30;12.40;99.90
41262;DHT22;29629;52.532;13.352;2023-04-25T12:14:02;12.30;99.90
41262;DHT22;29629;52.532;13.352;2023-04-25T12:16:39;11.80;99.90
41262;DHT22;29629;52.532;13.352;2023-04-25T12:19:06;11.90;99.90
41262;DHT22;29629;52.532;13.352;2023-04-25T12:21:35;11.90;99.90
41262;DHT22;29629;52.532;13.352;2023-04-25T12:24:10;11.80;99.90
41262;DHT22;29629;52.532;13.352;2023-04-25T12:26:47;12.30;99.90
41262;DHT22;29629;52.532;13.352;2023-04-25T12:29:16;12.00;99.90
41262;DHT22;29629;52.532;13.352;2023-04-25T12:31:43;12.60;99.90
41262;DHT22;29629;52.532;13.352;2023-04-25T12:34:12;13.00;99.90
41262;DHT22;29629;52.532;13.352;2023-04-25T12:36:40;13.10;99.90
41262;DHT22;29629;52.532;13.352;2023-04-25T12:39:07;13.60;99.90
41262;DHT22;29629;52.532;13.352;2023-04-25T12:41:34;13.10;99.90
41262;DHT22;29629;52.532;13.352;2023-04-25T12:44:01;12.70;99.90
41262;DHT22;29629;52.532;13.352;2023-04-25T12:46:28;12.60;99.90
41262;DHT22;29629;52.532;13.352;2023-04-25T12:48:55;12.80;99.90
41262;DHT22;29629;52.532;13.352;2023-04-25T12:51:23;12.50;99.90
41262;DHT22;29629;52.532;13.352;2023-04-25T12:53:52;12.20;99.90
41262;DHT22;29629;52.532;13.352;2023-04-25T12:56:19;12.10;99.90
41262;DHT22;29629;52.532;13.352;2023-04-25T12:58:46;12.10;99.90
41262;DHT22;29629;52.532;13.352;2023-04-25T13:01:13;11.80;99.90
41262;DHT22;29629;52.532;13.352;2023-04-25T13:03:41;12.10;99.90
41262;DHT22;29629;52.532;13.352;2023-04-25T13:06:10;12.10;99.90
41262;DHT22;29629;52.532;13.352;2023-04-25T13:08:38;12.70;99.90
41262;DHT22;29629;52.532;13.352;2023-04-25T13:11:07;13.50;99.90
41262;DHT22;29629;52.532;13.352;2023-04-25T13:13:34;14.80;99.90
41262;DHT22;29629;52.532;13.352;2023-04-25T13:16:02;15.90;99.90
41262;DHT22;29629;52.532;13.352;2023-04-25T13:18:29;16.00;99.90
41262;DHT22;29629;52.532;13.352;2023-04-25T13:20:56;15.30;99.90
41262;DHT22;29629;52.532;13.352;2023-04-25T13:23:26;13.60;99.90
41262;DHT22;29629;52.532;13.352;2023-04-25T13:25:54;13.60;99.90
41262;DHT22;29629;52.532;13.352;2023-04-25T13:28:24;13.40;99.90
41262;DHT22;29629;52.532;13.352;2023-04-25T13:30:52;12.90;99.90
41262;DHT22;29629;52.532;13.352;2023-04-25T13:33:19;12.80;99.90
41262;DHT22;29629;52.532;13.352;2023-04-25T13:35:48;12.50;99.90
41262;DHT22;29629;52.532;13.352;2023-04-25T13:38:20;12.60;99.90
41262;DHT22;29629;52.532;13.352;2023-04-25T13:40:47;12.60;99.90
41262;DHT22;29629;52.532;13.352;2023-04-25T13:43:14;12.40;99.90
41262;DHT22;29629;52.532;13.352;2023-04-25T13:45:43;12.40;99.90
41262;DHT22;29629;52.532;13.352;2023-04-25T13:48:10;12.40;99.90
41262;DHT22;29629;52.532;13.352;2023-04-25T13:50:37;13.10;99.90
41262;DHT22;29629;52.532;13.352;2023-04-25T13:53:04;13.60;99.90
41262;DHT22;29629;52.532;13.352;2023-04-25T13:55:31;13.20;99.90
41262;DHT22;29629;52.532;13.352;2023-04-25T13:57:58;12.90;99.90
41262;DHT22;29629;52.532;13.352;2023-04-25T14:00:25;12.70;99.90
41262;DHT22;29629;52.532;13.352;2023-04-25T14:02:53;12.60;99.90
41262;DHT22;29629;52.532;13.352;2023-04-25T14:05:20;12.50;99.90
41262;DHT22;29629;52.532;13.352;2023-04-25T14:07:47;12.40;99.90
41262;DHT22;29629;52.532;13.352;2023-04-25T14:10:14;12.50;99.90
41262;DHT22;29629;52.532;13.352;2023-04-25T14:12:41;12.00;99.90
41262;DHT22;29629;52.532;13.352;2023-04-25T14:15:09;11.90;99.90
41262;DHT22;29629;52.532;13.352;2023-04-25T14:17:36;11.70;99.90
41262;DHT22;29629;52.532;13.352;2023-04-25T14:20:06;11.50;99.90
41262;DHT22;29629;52.532;13.352;2023-04-25T14:22:33;11.30;99.90
41262;DHT22;29629;52.532;13.352;2023-04-25T14:25:00;11.40;99.90
41262;DHT22;29629;52.532;13.352;2023-04-25T14:27:27;11.50;99.90
41262;DHT22;29629;52.532;13.352;2023-04-25T14:29:56;11.70;99.90
41262;DHT22;29629;52.532;13.352;2023-04-25T14:32:23;11.90;99.90
41262;DHT22;29629;52.532;13.352;2023-04-25T14:34:50;12.00;99.90
41262;DHT22;29629;52.532;13.352;2023-04-25T14:37:23;12.10;99.90
41262;DHT22;29629;52.532;13.352;2023-04-25T14:39:50;12.00;99.90
41262;DHT22;29629;52.532;13.352;2023-04-25T14:42:17;12.30;99.90
41262;DHT22;29629;52.532;13.352;2023-04-25T14:44:44;12.10;99.90
41262;DHT22;29629;52.532;13.352;2023-04-25T14:47:11;12.10;99.90
41262;DHT22;29629;52.532;13.352;2023-04-25T14:49:38;12.00;99.90
41262;DHT22;29629;52.532;13.352;2023-04-25T14:52:04;11.70;99.90
41262;DHT22;29629;52.532;13.352;2023-04-25T14:54:33;11.50;99.90
41262;DHT22;29629;52.532;13.352;2023-04-25T14:57:00;11.40;99.90
41262;DHT22;29629;52.532;13.352;2023-04-25T14:59:31;11.40;99.90
41262;DHT22;29629;52.532;13.352;2023-04-25T15:01:57;11.40;99.90
41262;DHT22;29629;52.532;13.352;2023-04-25T15:04:24;11.30;99.90
41262;DHT22;29629;52.532;13.352;2023-04-25T15:06:51;11.30;99.90
41262;DHT22;29629;52.532;13.352;2023-04-25T15:09:18;11.20;99.90
41262;DHT22;29629;52.532;13.352;2023-04-25T15:11:47;11.10;99.90
41262;DHT22;29629;52.532;13.352;2023-04-25T15:14:14;11.20;99.90
41262;DHT22;29629;52.532;13.352;2023-04-25T15:16:41;11.40;99.90
41262;DHT22;29629;52.532;13.352;2023-04-25T15:19:08;11.30;99.90
41262;DHT22;29629;52.532;13.352;2023-04-25T15:21:36;11.30;99.90
41262;DHT22;29629;52.532;13.352;2023-04-25T15:24:04;11.40;99.90
41262;DHT22;29629;52.532;13.352;2023-04-25T15:26:31;11.30;99.90
41262;DHT22;29629;52.532;13.352;2023-04-25T15:28:59;11.40;99.90